| time (UTC) | temp F | wind direction | speed MPH | gust MPH | rain 1hr in | rain 24hr in | rain mn in | humidity % | barometer mb |
| 20260904164529 | 65 | 102 | 0.0 | 2.0 | 0.00 | 0.79 | 0.79 | 96 | 1016.0 |
| 20260904163031 | 64 | 85 | 0.0 | 3.0 | 0.00 | 0.79 | 0.79 | 96 | 1016.1 |
| 20260904161542 | 64 | 93 | 1.0 | 4.0 | 0.00 | 0.79 | 0.79 | 97 | 1016.1 |
| 20260904160017 | 64 | 360 | 0.0 | 2.0 | 0.00 | 0.79 | 0.79 | 97 | 1016.2 |
| 20260904154522 | 64 | 360 | 0.0 | 2.0 | 0.00 | 0.79 | 0.79 | 97 | 1016.0 |
| 20260904153030 | 64 | 360 | 0.0 | 1.0 | 0.00 | 0.79 | 0.79 | 97 | 1016.1 |
| 20260904151542 | 64 | 52 | 0.0 | 2.0 | 0.00 | 0.79 | 0.79 | 97 | 1016.1 |
| 20260904150035 | 64 | 15 | 0.0 | 4.0 | 0.00 | 0.79 | 0.79 | 97 | 1015.7 |
| 20260904144520 | 64 | 66 | 0.0 | 1.0 | 0.00 | 0.79 | 0.79 | 97 | 1015.7 |
| 20260904143027 | 63 | 360 | 0.0 | 0.0 | 0.00 | 0.79 | 0.79 | 97 | 1015.6 |
| 20260904141542 | 63 | 360 | 0.0 | 0.0 | 0.00 | 0.79 | 0.79 | 97 | 1015.8 |
| 20260904140034 | 63 | 99 | 0.0 | 1.0 | 0.00 | 0.79 | 0.79 | 97 | 1016.1 |
| 20260904134534 | 63 | 99 | 0.0 | 0.0 | 0.00 | 0.79 | 0.79 | 97 | 1015.6 |
| 20260904133025 | 62 | 99 | 0.0 | 2.0 | 0.00 | 0.79 | 0.79 | 97 | 1015.6 |
| 20260904131528 | 62 | 98 | 0.0 | 2.0 | 0.00 | 0.79 | 0.79 | 97 | 1014.6 |
| 20260904130032 | 62 | 113 | 0.0 | 0.0 | 0.01 | 0.79 | 0.79 | 96 | 1014.9 |
| 20260904124535 | 62 | 113 | 0.0 | 2.0 | 0.08 | 0.79 | 0.79 | 96 | 1014.9 |
| 20260904123017 | 62 | 108 | 0.0 | 0.0 | 0.09 | 0.79 | 0.79 | 97 | 1015.6 |
| 20260904121534 | 62 | 108 | 0.0 | 1.0 | 0.09 | 0.79 | 0.79 | 97 | 1015.4 |
| 20260904120008 | 61 | 108 | 0.0 | 1.0 | 0.08 | 0.78 | 0.78 | 96 | 1014.9 |
| 20260904114509 | 61 | 108 | 0.0 | 1.0 | 0.01 | 0.71 | 0.71 | 96 | 1014.7 |
| 20260904113029 | 61 | 110 | 0.0 | 0.0 | 0.00 | 0.70 | 0.70 | 96 | 1015.5 |
| 20260904111527 | 61 | 110 | 0.0 | 0.0 | 0.00 | 0.70 | 0.70 | 96 | 1014.9 |
| 20260904110002 | 61 | 110 | 0.0 | 1.0 | 0.00 | 0.70 | 0.70 | 96 | 1014.4 |
| 20260904104506 | 61 | 110 | 0.0 | 1.0 | 0.00 | 0.70 | 0.70 | 96 | 1014.4 |
| 20260904103010 | 62 | 122 | 0.0 | 1.0 | 0.00 | 0.70 | 0.70 | 96 | 1014.5 |
| 20260904101517 | 62 | 137 | 0.0 | 1.0 | 0.00 | 0.70 | 0.70 | 96 | 1014.3 |
| 20260904100025 | 61 | 137 | 0.0 | 1.0 | 0.00 | 0.70 | 0.70 | 96 | 1014.0 |
| 20260904094503 | 61 | 259 | 0.0 | 2.0 | 0.00 | 0.70 | 0.70 | 96 | 1014.5 |
| 20260904093008 | 61 | 217 | 0.0 | 2.0 | 0.01 | 0.70 | 0.70 | 96 | 1014.4 |
| 20260904091513 | 61 | 146 | 0.0 | 1.0 | 0.04 | 0.70 | 0.70 | 96 | 1014.4 |
| 20260904090018 | 61 | 360 | 0.0 | 4.0 | 0.09 | 0.70 | 0.70 | 96 | 1014.4 |
| 20260904084528 | 61 | 191 | 0.0 | 1.0 | 0.38 | 0.70 | 0.70 | 96 | 1014.5 |
| 20260904083005 | 61 | 206 | 0.0 | 2.0 | 0.56 | 0.69 | 0.69 | 96 | 1014.1 |
| 20260904081514 | 61 | 16 | 0.0 | 2.0 | 0.54 | 0.66 | 0.66 | 95 | 1015.1 |
| 20260904080020 | 62 | 15 | 0.0 | 1.0 | 0.52 | 0.61 | 0.61 | 95 | 1016.1 |
| 20260904074530 | 62 | 15 | 0.0 | 0.0 | 0.28 | 0.32 | 0.32 | 95 | 1016.7 |
| 20260904073035 | 62 | 18 | 0.0 | 0.0 | 0.12 | 0.13 | 0.13 | 95 | 1015.9 |
| 20260904071508 | 62 | 13 | 0.0 | 0.0 | 0.12 | 0.12 | 0.12 | 95 | 1015.2 |
| 20260904070012 | 62 | 13 | 0.0 | 1.0 | 0.09 | 0.09 | 0.09 | 95 | 1015.0 |
| 20260904064518 | 62 | 15 | 0.0 | 0.0 | 0.04 | 0.04 | 0.04 | 95 | 1015.4 |
| 20260904063027 | 61 | 17 | 0.0 | 0.0 | 0.01 | 0.01 | 0.01 | 95 | 1015.9 |
| 20260904061537 | 61 | 13 | 0.0 | 0.0 | 0.00 | 0.00 | 0.00 | 94 | 1015.3 |
| 20260904060008 | 61 | 13 | 0.0 | 1.0 | 0.00 | 0.00 | 0.00 | 94 | 1015.5 |
| 20260904054515 | 61 | 13 | 0.0 | 0.0 | 0.00 | 0.00 | 0.00 | 95 | 1015.4 |
| 20260904053023 | 60 | 13 | 0.0 | 0.0 | 0.00 | 0.00 | 0.00 | 94 | 1015.7 |
| 20260904051532 | 60 | 13 | 0.0 | 0.0 | 0.00 | 0.00 | 0.00 | 94 | 1015.4 |
| 20260904050032 | 60 | 16 | 0.0 | 0.0 | 0.00 | 0.00 | 0.00 | 94 | 1015.4 |
| 20260904044516 | 60 | 19 | 0.0 | 0.0 | 0.00 | 0.00 | 0.00 | 93 | 1015.3 |
| 20260904043018 | 60 | 13 | 0.0 | 1.0 | 0.00 | 0.00 | 0.00 | 94 | 1015.6 |
| 20260904041534 | 60 | 13 | 0.0 | 0.0 | 0.00 | 0.00 | 0.00 | 94 | 1015.5 |
| 20260904040033 | 60 | 13 | 0.0 | 1.0 | 0.00 | 0.00 | 0.00 | 94 | 1015.4 |
| 20260904034533 | 60 | 15 | 0.0 | 0.0 | 0.00 | 0.00 | 0.00 | 93 | 1015.4 |
| 20260904033013 | 60 | 14 | 0.0 | 0.0 | 0.00 | 0.00 | 0.00 | 93 | 1015.5 |
| 20260904031519 | 60 | 16 | 0.0 | 0.0 | 0.00 | 0.00 | 0.00 | 93 | 1015.8 |
| 20260904030030 | 60 | 16 | 0.0 | 0.0 | 0.00 | 0.00 | 0.00 | 93 | 1015.8 |
| 20260904024531 | 60 | 18 | 0.0 | 0.0 | 0.00 | 0.00 | 0.00 | 93 | 1015.9 |
| 20260904023033 | 60 | 19 | 0.0 | 0.0 | 0.00 | 0.00 | 0.00 | 93 | 1015.9 |
| 20260904021516 | 60 | 17 | 0.0 | 0.0 | 0.00 | 0.00 | 0.00 | 93 | 1016.1 |
| 20260904020038 | 60 | 16 | 0.0 | 0.0 | 0.00 | 0.00 | 0.00 | 92 | 1016.0 |
| 20260904014531 | 61 | 17 | 0.0 | 0.0 | 0.00 | 0.00 | 0.00 | 92 | 1015.8 |
| 20260904013035 | 61 | 20 | 0.0 | 0.0 | 0.00 | 0.00 | 0.00 | 91 | 1015.7 |
| 20260904011534 | 61 | 18 | 0.0 | 0.0 | 0.00 | 0.00 | 0.00 | 90 | 1015.1 |
| 20260904010018 | 62 | 21 | 0.0 | 0.0 | 0.00 | 0.00 | 0.00 | 89 | 1015.1 |
| 20260904004527 | 62 | 22 | 0.0 | 0.0 | 0.00 | 0.00 | 0.00 | 88 | 1014.7 |
| 20260904003032 | 63 | 23 | 0.0 | 0.0 | 0.00 | 0.00 | 0.00 | 86 | 1015.0 |
| 20260904001533 | 64 | 23 | 0.0 | 0.0 | 0.00 | 0.00 | 0.00 | 86 | 1015.1 |
| 20260904000013 | 65 | 19 | 0.0 | 0.0 | 0.00 | 0.00 | 0.00 | 85 | 1015.1 |
| 20260903234522 | 65 | 20 | 0.0 | 1.0 | 0.00 | 0.00 | 0.00 | 83 | 1015.3 |
| 20260903233034 | 66 | 23 | 0.0 | 3.0 | 0.00 | 0.00 | 0.00 | 82 | 1015.3 |
| 20260903231530 | 66 | 28 | 0.0 | 5.0 | 0.00 | 0.00 | 0.00 | 82 | 1015.3 |
| 20260903230012 | 67 | 33 | 1.0 | 5.0 | 0.00 | 0.00 | 0.00 | 83 | 1015.2 |
| 20260903224519 | 67 | 29 | 1.0 | 5.0 | 0.00 | 0.00 | 0.00 | 81 | 1015.1 |
| 20260903223025 | 68 | 34 | 0.0 | 4.0 | 0.00 | 0.00 | 0.00 | 81 | 1014.9 |
| 20260903221538 | 68 | 26 | 0.0 | 4.0 | 0.00 | 0.00 | 0.00 | 79 | 1014.9 |
| 20260903220055 | 68 | 49 | 0.0 | 5.0 | 0.00 | 0.00 | 0.00 | 79 | 1014.7 |
| 20260903214516 | 68 | 44 | 0.0 | 4.0 | 0.00 | 0.00 | 0.00 | 78 | 1014.6 |
| 20260903213020 | 69 | 47 | 1.0 | 6.0 | 0.00 | 0.00 | 0.00 | 77 | 1014.4 |
| 20260903211527 | 70 | 34 | 1.0 | 5.0 | 0.00 | 0.00 | 0.00 | 76 | 1014.7 |
| 20260903210034 | 70 | 113 | 1.0 | 3.0 | 0.00 | 0.00 | 0.00 | 74 | 1014.7 |
| 20260903204534 | 71 | 86 | 0.0 | 6.0 | 0.00 | 0.00 | 0.00 | 73 | 1014.7 |
| 20260903203023 | 71 | 114 | 1.0 | 8.0 | 0.00 | 0.00 | 0.00 | 71 | 1014.7 |
| 20260903201523 | 71 | 68 | 2.0 | 8.0 | 0.00 | 0.00 | 0.00 | 68 | 1014.7 |
| 20260903200041 | 72 | 292 | 2.0 | 8.0 | 0.00 | 0.00 | 0.00 | 67 | 1014.9 |
| 20260903194541 | 72 | 189 | 0.0 | 7.0 | 0.00 | 0.00 | 0.00 | 66 | 1015.0 |
| 20260903193031 | 72 | 60 | 1.0 | 8.0 | 0.00 | 0.00 | 0.00 | 66 | 1015.2 |
| 20260903191519 | 72 | 49 | 2.0 | 8.0 | 0.00 | 0.00 | 0.00 | 64 | 1015.2 |
| 20260903190027 | 74 | 72 | 0.0 | 7.0 | 0.00 | 0.00 | 0.00 | 65 | 1015.1 |
| 20260903184530 | 74 | 41 | 0.0 | 9.0 | 0.00 | 0.00 | 0.00 | 70 | 1015.0 |
| 20260903183051 | 75 | 44 | 0.0 | 7.0 | 0.00 | 0.00 | 0.00 | 64 | 1015.0 |
| 20260903181513 | 76 | 17 | 1.0 | 7.0 | 0.00 | 0.00 | 0.00 | 60 | 1015.2 |
| 20260903180019 | 76 | 4 | 1.0 | 9.0 | 0.00 | 0.00 | 0.00 | 61 | 1015.3 |
| 20260903174529 | 76 | 37 | 0.0 | 6.0 | 0.00 | 0.00 | 0.00 | 59 | 1015.3 |
| 20260903173034 | 75 | 48 | 1.0 | 8.0 | 0.00 | 0.00 | 0.00 | 62 | 1015.1 |
| 20260903171533 | 76 | 78 | 4.0 | 8.0 | 0.00 | 0.00 | 0.00 | 61 | 1015.2 |
| 20260903170018 | 76 | 61 | 2.0 | 8.0 | 0.00 | 0.00 | 0.00 | 62 | 1015.2 |